Time;durP1;ratioP1;P1;durP2;ratioP2;P2;SDS_P1;SDS_P2;PMS_P1;PMS_P2;Temp;Humidity;BMP_temperature;BMP_pressure;BME280_temperature;BME280_humidity;BME280_pressure;Samples;Min_cycle;Max_cycle;Signal;HPM_P1;HPM_P2
2020/12/08 00:01:36;;;;;;;19.52;12.02;;;3.00;91.50;;;;;;5034789;28;20021;-81
2020/12/08 00:04:01;;;;;;;21.65;12.25;;;3.00;91.50;;;;;;5052849;28;20047;-82
2020/12/08 00:06:27;;;;;;;22.30;12.82;;;3.00;91.50;;;;;;5035167;28;20064;-81
2020/12/08 00:08:53;;;;;;;22.08;12.68;;;3.00;91.60;;;;;;5052933;28;20033;-81
2020/12/08 00:11:18;;;;;;;18.02;11.40;;;2.90;91.60;;;;;;5027151;28;20029;-81
2020/12/08 00:13:45;;;;;;;20.48;12.18;;;2.90;91.60;;;;;;5034777;28;20367;-81
2020/12/08 00:16:11;;;;;;;18.77;11.77;;;2.80;91.90;;;;;;5055200;28;20385;-81
2020/12/08 00:18:37;;;;;;;21.88;12.43;;;2.90;91.60;;;;;;5038879;28;20025;-81
2020/12/08 00:21:04;;;;;;;19.88;12.10;;;2.80;91.60;;;;;;5038823;28;20025;-81
2020/12/08 00:23:29;;;;;;;22.42;13.15;;;2.80;91.60;;;;;;5022453;28;20025;-81
2020/12/08 00:25:55;;;;;;;22.85;12.65;;;2.80;91.60;;;;;;5022426;28;20025;-80
2020/12/08 00:28:21;;;;;;;23.98;12.60;;;2.80;91.60;;;;;;5018874;28;20048;-81
2020/12/08 00:30:47;;;;;;;19.27;11.98;;;2.80;91.60;;;;;;5034609;28;20243;-84
2020/12/08 00:33:13;;;;;;;20.83;12.82;;;2.80;91.60;;;;;;5038219;28;20025;-84
2020/12/08 00:35:38;;;;;;;19.88;12.18;;;2.80;91.60;;;;;;5045427;28;20040;-84
2020/12/08 00:38:05;;;;;;;23.15;12.27;;;2.70;91.60;;;;;;5041370;28;20033;-84
2020/12/08 00:40:30;;;;;;;20.70;12.15;;;2.80;91.60;;;;;;5037799;28;20047;-84
2020/12/08 00:42:56;;;;;;;21.08;12.50;;;2.70;91.60;;;;;;5018356;28;20029;-84
2020/12/08 00:45:22;;;;;;;21.90;12.95;;;2.70;91.60;;;;;;5036057;28;20029;-84
2020/12/08 00:47:47;;;;;;;24.48;14.13;;;2.70;91.60;;;;;;5020154;28;20047;-84
2020/12/08 00:50:13;;;;;;;24.45;14.50;;;2.60;91.80;;;;;;5039198;28;20033;-84
2020/12/08 00:52:39;;;;;;;24.98;14.68;;;2.60;91.60;;;;;;5048790;28;20048;-84
2020/12/08 00:55:05;;;;;;;26.60;14.05;;;2.60;91.60;;;;;;5041122;28;20040;-84
2020/12/08 00:57:31;;;;;;;29.38;16.40;;;2.60;91.60;;;;;;5048343;28;20481;-84
2020/12/08 00:59:56;;;;;;;25.90;14.70;;;2.50;91.50;;;;;;5039145;28;20041;-84
2020/12/08 01:02:22;;;;;;;23.17;13.38;;;2.50;91.60;;;;;;5018411;28;20120;-84
2020/12/08 01:04:48;;;;;;;24.23;14.20;;;2.40;91.60;;;;;;5048487;28;20036;-85
2020/12/08 01:07:15;;;;;;;28.60;15.05;;;2.40;91.60;;;;;;5046408;28;20037;-84
2020/12/08 01:09:40;;;;;;;27.13;14.40;;;2.40;91.60;;;;;;5039875;28;20029;-84
2020/12/08 01:12:06;;;;;;;24.17;14.85;;;2.40;91.70;;;;;;5002035;28;20036;-84
2020/12/08 01:14:33;;;;;;;25.60;14.70;;;2.40;91.60;;;;;;5018193;28;20026;-83
2020/12/08 01:16:59;;;;;;;23.13;13.15;;;2.40;91.60;;;;;;5018106;28;20025;-84
2020/12/08 01:19:25;;;;;;;25.45;13.68;;;2.30;91.60;;;;;;5017951;28;20087;-84
2020/12/08 01:21:52;;;;;;;23.80;13.68;;;2.30;91.50;;;;;;5018059;28;20076;-84
2020/12/08 01:24:18;;;;;;;23.10;13.88;;;2.30;91.50;;;;;;5018003;28;20029;-84
2020/12/08 01:26:44;;;;;;;21.30;12.88;;;2.20;91.50;;;;;;5023778;28;20092;-84
2020/12/08 01:29:10;;;;;;;21.70;13.50;;;2.30;91.50;;;;;;5026672;28;20084;-83
2020/12/08 01:31:36;;;;;;;24.70;14.30;;;2.20;91.60;;;;;;5055629;28;20563;-84
2020/12/08 01:34:02;;;;;;;23.75;13.98;;;2.20;91.60;;;;;;5055458;28;20036;-84
2020/12/08 01:36:27;;;;;;;22.35;13.00;;;2.20;91.60;;;;;;5037461;28;20401;-84
2020/12/08 01:38:53;;;;;;;27.75;15.73;;;2.20;91.70;;;;;;5037880;28;20124;-84
2020/12/08 01:41:18;;;;;;;23.63;13.75;;;2.10;91.60;;;;;;5037473;28;20045;-84
2020/12/08 01:43:48;;;;;;;23.63;13.20;;;2.10;91.60;;;;;;5037622;28;20104;-84
2020/12/08 01:46:19;;;;;;;22.17;13.75;;;2.10;91.60;;;;;;5048831;28;20444;-84
2020/12/08 01:48:47;;;;;;;22.13;12.63;;;2.10;91.60;;;;;;5037382;28;20037;-84
2020/12/08 01:51:17;;;;;;;23.10;13.57;;;2.10;91.60;;;;;;5037482;28;20438;-89
2020/12/08 01:53:47;;;;;;;23.92;13.80;;;2.10;91.50;;;;;;5038262;28;20477;-89
2020/12/08 01:56:13;;;;;;;25.75;13.63;;;2.00;91.50;;;;;;5021588;28;20029;-89
2020/12/08 01:58:39;;;;;;;24.05;14.40;;;2.00;91.50;;;;;;5055578;28;20016;-89
2020/12/08 02:01:06;;;;;;;28.25;14.23;;;2.00;91.50;;;;;;5038232;28;20033;-89
2020/12/08 02:03:31;;;;;;;23.13;13.68;;;1.90;91.40;;;;;;5038187;28;20025;-89
2020/12/08 02:05:57;;;;;;;20.88;12.85;;;1.90;91.50;;;;;;5021696;28;20025;-89
2020/12/08 02:08:31;;;;;;;25.02;13.60;;;1.80;91.50;;;;;;5017533;28;20025;-89
2020/12/08 02:10:57;;;;;;;25.98;14.55;;;1.80;91.50;;;;;;5035533;28;20086;-89
2020/12/08 02:13:23;;;;;;;28.20;15.10;;;1.80;91.40;;;;;;5035555;28;20119;-88
2020/12/08 02:15:49;;;;;;;24.15;14.68;;;1.80;91.40;;;;;;5038060;28;20029;-88
2020/12/08 02:18:15;;;;;;;23.45;13.52;;;1.80;91.40;;;;;;5036177;28;20040;-87
2020/12/08 02:20:41;;;;;;;23.25;13.35;;;1.80;91.50;;;;;;5055442;28;20085;-89
2020/12/08 02:23:07;;;;;;;23.15;14.63;;;1.80;91.40;;;;;;5052337;28;20040;-89
2020/12/08 02:25:33;;;;;;;28.55;14.98;;;1.80;91.40;;;;;;5019292;28;20029;-89
2020/12/08 02:27:58;;;;;;;25.63;14.93;;;1.80;91.40;;;;;;5001607;28;20029;-89
2020/12/08 02:30:24;;;;;;;24.92;14.85;;;1.80;91.50;;;;;;5017511;28;20041;-87
2020/12/08 02:32:50;;;;;;;29.75;16.45;;;1.80;91.40;;;;;;5023032;28;20029;-89
2020/12/08 02:35:15;;;;;;;29.23;15.52;;;1.80;91.40;;;;;;5049496;28;20057;-88
2020/12/08 02:37:41;;;;;;;24.35;14.10;;;1.80;91.40;;;;;;5037371;28;20033;-88
2020/12/08 02:40:07;;;;;;;31.55;16.40;;;1.80;91.40;;;;;;5040004;28;20056;-89
2020/12/08 02:42:33;;;;;;;28.23;15.20;;;1.80;91.50;;;;;;5024837;28;20109;-87
2020/12/08 02:44:58;;;;;;;27.67;15.38;;;1.70;91.40;;;;;;5031010;28;20044;-88
2020/12/08 02:47:24;;;;;;;33.85;17.45;;;1.70;91.40;;;;;;5037392;28;20478;-88
2020/12/08 02:49:50;;;;;;;23.67;14.25;;;1.70;91.40;;;;;;5016833;28;20025;-89
2020/12/08 02:52:16;;;;;;;23.63;14.82;;;1.70;91.50;;;;;;5033443;28;20116;-88
2020/12/08 02:54:41;;;;;;;31.45;15.63;;;1.70;91.50;;;;;;5043750;28;20041;-88
2020/12/08 02:57:07;;;;;;;25.38;15.05;;;1.70;91.50;;;;;;5053689;28;20033;-89
2020/12/08 02:59:34;;;;;;;32.17;16.23;;;1.70;91.80;;;;;;5025975;28;20389;-89
2020/12/08 03:02:00;;;;;;;30.23;16.23;;;1.70;91.50;;;;;;5053365;28;20017;-88
2020/12/08 03:04:25;;;;;;;27.40;14.80;;;1.70;91.60;;;;;;5037179;28;20378;-88
2020/12/08 03:06:51;;;;;;;28.52;15.98;;;1.70;91.50;;;;;;5053417;28;20093;-88
2020/12/08 03:09:17;;;;;;;28.80;16.30;;;1.70;91.50;;;;;;5019156;28;20041;-88
2020/12/08 03:11:43;;;;;;;34.80;16.67;;;1.70;91.50;;;;;;5033288;28;20029;-88
2020/12/08 03:14:08;;;;;;;27.10;15.40;;;1.70;91.50;;;;;;5026412;28;20041;-89
2020/12/08 03:16:35;;;;;;;25.20;15.60;;;1.70;91.50;;;;;;5020111;28;20033;-88
2020/12/08 03:19:01;;;;;;;32.17;16.10;;;1.70;91.50;;;;;;5036527;28;20500;-89
2020/12/08 03:21:30;;;;;;;32.38;16.15;;;1.60;91.50;;;;;;5036701;28;20021;-88
2020/12/08 03:23:56;;;;;;;29.85;15.23;;;1.60;91.60;;;;;;5036526;28;20432;-88
2020/12/08 03:26:22;;;;;;;29.13;16.05;;;1.60;91.60;;;;;;5020318;28;20116;-88
2020/12/08 03:28:48;;;;;;;25.88;16.45;;;1.60;91.60;;;;;;5037228;28;20033;-88
2020/12/08 03:31:14;;;;;;;28.27;16.83;;;1.60;91.60;;;;;;5053184;28;20033;-88
2020/12/08 03:33:40;;;;;;;25.83;15.38;;;1.60;91.80;;;;;;5052755;28;20033;-88
2020/12/08 03:36:20;;;;;;;27.83;15.77;;;1.60;91.50;;;;;;5036356;28;20489;-88
2020/12/08 03:38:50;;;;;;;25.92;15.27;;;1.60;91.50;;;;;;5029412;28;20021;-88
2020/12/08 03:41:23;;;;;;;28.30;15.82;;;1.60;91.60;;;;;;5052741;28;20049;-88
2020/12/08 03:43:52;;;;;;;30.05;16.95;;;1.60;91.60;;;;;;5036393;28;20032;-88
2020/12/08 03:46:22;;;;;;;30.65;18.00;;;1.70;91.60;;;;;;5052965;28;20028;-88
2020/12/08 03:48:48;;;;;;;27.50;16.90;;;1.70;91.60;;;;;;5043403;28;20456;-88
2020/12/08 03:51:16;;;;;;;30.65;18.15;;;1.70;91.60;;;;;;5035940;28;20033;-88
2020/12/08 03:53:42;;;;;;;28.83;17.42;;;1.80;91.60;;;;;;5033364;28;20025;-88
2020/12/08 03:56:15;;;;;;;29.30;17.45;;;1.80;91.60;;;;;;5032891;28;20060;-88
2020/12/08 03:58:41;;;;;;;30.15;17.50;;;1.90;91.60;;;;;;5042754;28;20026;-87
2020/12/08 04:01:21;;;;;;;30.17;18.40;;;1.90;91.60;;;;;;5016525;28;20620;-88
2020/12/08 04:03:49;;;;;;;30.63;17.02;;;1.90;91.60;;;;;;5027326;28;20029;-88
2020/12/08 04:06:15;;;;;;;30.73;17.63;;;1.90;91.60;;;;;;5053784;28;20032;-88
2020/12/08 04:08:45;;;;;;;31.83;18.20;;;2.00;91.60;;;;;;5023870;28;20044;-88
2020/12/08 04:11:14;;;;;;;31.63;18.25;;;2.00;91.70;;;;;;5016278;28;20029;-89
2020/12/08 04:13:40;;;;;;;37.90;19.40;;;2.00;91.70;;;;;;5016679;28;20142;-88
2020/12/08 04:16:12;;;;;;;32.33;17.58;;;2.00;92.00;;;;;;5032579;28;20086;-89
2020/12/08 04:18:38;;;;;;;30.58;18.65;;;2.10;91.80;;;;;;5043466;28;20022;-88
2020/12/08 04:21:03;;;;;;;31.65;18.13;;;2.10;91.80;;;;;;5036014;28;20025;-87
2020/12/08 04:23:29;;;;;;;30.42;17.73;;;2.10;91.80;;;;;;5035923;28;20048;-88
2020/12/08 04:25:54;;;;;;;34.88;19.65;;;2.20;91.80;;;;;;5036064;28;20053;-88
2020/12/08 04:28:20;;;;;;;34.13;19.05;;;2.20;91.80;;;;;;5029165;28;20505;-88
2020/12/08 04:30:46;;;;;;;34.30;20.52;;;2.30;91.90;;;;;;5016290;28;20026;-88
2020/12/08 04:33:13;;;;;;;35.17;21.23;;;2.30;91.90;;;;;;5016097;28;20497;-88
2020/12/08 04:35:41;;;;;;;32.85;21.02;;;2.30;91.90;;;;;;5033589;28;20022;-88
2020/12/08 04:38:07;;;;;;;37.17;20.60;;;2.40;91.90;;;;;;5025294;28;20064;-88
2020/12/08 04:40:33;;;;;;;34.25;20.17;;;2.40;91.90;;;;;;5035300;28;20065;-88
2020/12/08 04:42:58;;;;;;;31.15;18.77;;;2.40;91.90;;;;;;5035926;28;20090;-88
2020/12/08 04:45:24;;;;;;;30.77;19.25;;;2.40;91.90;;;;;;5035999;28;20041;-88
2020/12/08 04:47:50;;;;;;;36.85;21.42;;;2.40;91.90;;;;;;5019151;28;20025;-88
2020/12/08 04:50:18;;;;;;;33.42;19.95;;;2.50;92.00;;;;;;5035706;28;20033;-87
2020/12/08 04:52:49;;;;;;;32.55;20.17;;;2.50;92.00;;;;;;5019266;28;20085;-88
2020/12/08 04:55:15;;;;;;;34.10;20.30;;;2.50;92.00;;;;;;5044507;28;20025;-89
2020/12/08 04:57:41;;;;;;;31.67;18.52;;;2.60;92.00;;;;;;5052077;28;20029;-88
2020/12/08 05:00:08;;;;;;;34.42;19.92;;;2.60;92.00;;;;;;5052182;28;20164;-88
2020/12/08 05:02:55;;;;;;;31.13;19.48;;;2.60;92.00;;;;;;5046315;28;20025;-88
2020/12/08 05:05:22;;;;;;;30.13;18.35;;;2.60;92.00;;;;;;5038111;28;20024;-84
2020/12/08 05:07:49;;;;;;;30.02;17.63;;;2.60;92.00;;;;;;5046582;28;20032;-84
2020/12/08 05:10:25;;;;;;;32.65;19.70;;;2.60;92.30;;;;;;5054753;28;20033;-84
2020/12/08 05:12:51;;;;;;;34.60;20.02;;;2.60;92.10;;;;;;5055652;28;20530;-88
2020/12/08 05:15:16;;;;;;;38.40;21.17;;;2.50;92.10;;;;;;5023608;28;20037;-87
2020/12/08 05:17:43;;;;;;;38.63;21.23;;;2.60;92.10;;;;;;5013559;28;20468;-88
2020/12/08 05:20:14;;;;;;;32.85;19.17;;;2.60;92.10;;;;;;5038601;28;20036;-88
2020/12/08 05:22:56;;;;;;;38.58;19.40;;;2.60;92.20;;;;;;5038818;28;20029;-88
2020/12/08 05:25:25;;;;;;;39.55;22.42;;;2.60;92.20;;;;;;5034592;28;20074;-88
2020/12/08 05:27:51;;;;;;;35.85;20.50;;;2.50;92.40;;;;;;5036435;28;20032;-88
2020/12/08 05:30:18;;;;;;;33.78;19.42;;;2.60;92.50;;;;;;5019873;28;20044;-87
2020/12/08 05:32:44;;;;;;;34.63;20.73;;;2.60;92.20;;;;;;5042655;28;20090;-89
2020/12/08 05:35:14;;;;;;;33.78;20.42;;;2.60;92.30;;;;;;5055162;28;20029;-88
2020/12/08 05:37:46;;;;;;;33.92;18.95;;;2.60;92.30;;;;;;5055194;28;20029;-88
2020/12/08 05:40:14;;;;;;;32.28;18.90;;;2.60;92.30;;;;;;5055224;28;20025;-88
2020/12/08 05:42:42;;;;;;;33.92;20.60;;;2.60;92.20;;;;;;5054797;28;20053;-88
2020/12/08 05:45:10;;;;;;;35.20;21.45;;;2.70;92.30;;;;;;5042434;28;20033;-80
2020/12/08 05:47:54;;;;;;;36.50;22.08;;;2.70;92.20;;;;;;5055246;28;20031;-79
2020/12/08 05:50:21;;;;;;;34.05;21.35;;;2.70;92.30;;;;;;5017456;28;20036;-80
2020/12/08 05:52:55;;;;;;;31.23;19.55;;;2.70;92.30;;;;;;5017551;28;20043;-80
2020/12/08 05:55:23;;;;;;;32.88;20.58;;;2.80;92.30;;;;;;5017391;28;20095;-79
2020/12/08 05:57:51;;;;;;;33.75;21.10;;;2.80;92.30;;;;;;5018149;28;20128;-79
2020/12/08 06:00:25;;;;;;;37.80;22.65;;;2.80;92.30;;;;;;5020560;28;20120;-80
2020/12/08 06:02:52;;;;;;;40.85;22.95;;;2.80;92.30;;;;;;5037103;28;20067;-80
2020/12/08 06:05:31;;;;;;;35.28;19.63;;;2.90;92.30;;;;;;5020658;28;20036;-80
2020/12/08 06:08:12;;;;;;;;;;;2.90;92.30;;;;;;5036014;28;20494;-79
2020/12/08 06:10:55;;;;;;;32.25;20.33;;;2.90;92.20;;;;;;5054904;28;19908;-80
2020/12/08 06:13:39;;;;;;;35.05;21.63;;;2.90;92.30;;;;;;5037774;28;20025;-80
2020/12/08 06:16:15;;;;;;;36.28;22.17;;;3.00;92.30;;;;;;5022235;28;20370;-80
2020/12/08 06:18:41;;;;;;;38.33;22.98;;;3.00;92.50;;;;;;5036473;28;20017;-79
2020/12/08 06:21:27;;;;;;;38.85;22.65;;;3.00;92.20;;;;;;5036864;28;20024;-80
2020/12/08 06:23:58;;;;;;;36.10;22.48;;;3.10;92.30;;;;;;5054138;28;20020;-79
2020/12/08 06:26:28;;;;;;;39.05;23.33;;;3.10;92.50;;;;;;5036291;28;20029;-79
2020/12/08 06:28:55;;;;;;;37.08;21.42;;;3.10;92.30;;;;;;5036456;28;20055;-80
2020/12/08 06:31:21;;;;;;;39.95;23.45;;;3.10;92.30;;;;;;5036524;28;20029;-80
2020/12/08 06:33:49;;;;;;;34.72;21.05;;;3.10;92.30;;;;;;5020080;28;20082;-80
2020/12/08 06:36:16;;;;;;;39.60;22.60;;;3.10;92.30;;;;;;5054082;28;20484;-80
2020/12/08 06:38:41;;;;;;;35.00;22.25;;;3.10;92.30;;;;;;5053155;28;20501;-80
2020/12/08 06:41:07;;;;;;;35.58;21.52;;;3.10;92.30;;;;;;5053113;28;20049;-80
2020/12/08 06:43:38;;;;;;;31.80;20.15;;;3.10;92.30;;;;;;5030431;28;20021;-79
2020/12/08 06:46:08;;;;;;;28.65;17.80;;;3.20;92.30;;;;;;5034401;28;20076;-87
2020/12/08 06:48:35;;;;;;;32.00;21.17;;;3.20;92.30;;;;;;5001003;28;20493;-86
2020/12/08 06:51:01;;;;;;;34.95;21.92;;;3.20;92.30;;;;;;5034780;28;20424;-87
2020/12/08 06:53:27;;;;;;;33.95;22.15;;;3.20;92.30;;;;;;5033438;28;20022;-85
2020/12/08 06:55:52;;;;;;;33.35;20.25;;;3.20;92.30;;;;;;5033413;28;20036;-86
2020/12/08 06:58:19;;;;;;;37.25;22.38;;;3.20;92.60;;;;;;5053465;28;20029;-79
2020/12/08 07:00:45;;;;;;;31.48;20.40;;;3.20;92.30;;;;;;5052333;28;20104;-79
2020/12/08 07:03:12;;;;;;;37.17;21.77;;;3.20;92.30;;;;;;5035570;28;20573;-79
2020/12/08 07:05:38;;;;;;;36.70;23.33;;;3.20;92.30;;;;;;5025334;28;20496;-79
2020/12/08 07:08:05;;;;;;;40.92;23.95;;;3.20;92.30;;;;;;5036341;28;20033;-78
2020/12/08 07:10:40;;;;;;;34.50;21.25;;;3.20;92.30;;;;;;5053286;28;20025;-79
2020/12/08 07:13:16;;;;;;;39.33;23.42;;;3.20;92.40;;;;;;5040452;28;20074;-79
2020/12/08 07:15:43;;;;;;;39.88;24.50;;;3.20;92.40;;;;;;5053110;28;20047;-79
2020/12/08 07:18:10;;;;;;;41.15;25.65;;;3.20;92.30;;;;;;5034485;28;20029;-79
2020/12/08 07:20:39;;;;;;;44.45;25.42;;;3.30;92.40;;;;;;5053090;28;20063;-79
2020/12/08 07:23:06;;;;;;;41.55;25.17;;;3.30;92.40;;;;;;5035616;28;20029;-79
2020/12/08 07:25:33;;;;;;;37.72;22.90;;;3.30;92.30;;;;;;5052213;28;20056;-79
2020/12/08 07:28:00;;;;;;;37.97;22.00;;;3.40;92.30;;;;;;5021078;28;20033;-79
2020/12/08 07:30:27;;;;;;;41.78;25.10;;;3.40;92.30;;;;;;5043529;28;20037;-79
2020/12/08 07:32:54;;;;;;;38.55;22.67;;;3.40;92.30;;;;;;5034866;28;20033;-79
2020/12/08 07:35:30;;;;;;;33.72;22.90;;;3.40;92.30;;;;;;5034949;28;20032;-80
2020/12/08 07:37:59;;;;;;;40.72;23.58;;;3.40;92.30;;;;;;5043812;28;20032;-79
2020/12/08 07:40:33;;;;;;;39.67;23.25;;;3.50;92.30;;;;;;5017722;28;20034;-79
2020/12/08 07:42:59;;;;;;;38.17;22.13;;;3.50;92.40;;;;;;5052317;28;20122;-79
2020/12/08 07:45:24;;;;;;;40.10;24.17;;;3.50;92.30;;;;;;5035125;28;20036;-79
2020/12/08 07:47:58;;;;;;;39.03;22.67;;;3.50;92.30;;;;;;5031237;28;20031;-79
2020/12/08 07:50:28;;;;;;;38.30;23.73;;;3.50;92.40;;;;;;5032033;28;20033;-79
2020/12/08 07:52:59;;;;;;;37.42;23.38;;;3.60;92.40;;;;;;5016185;28;20029;-79
2020/12/08 07:55:26;;;;;;;38.50;24.55;;;3.60;92.30;;;;;;5015101;28;20386;-80
2020/12/08 07:57:51;;;;;;;40.00;24.85;;;3.60;92.30;;;;;;5051721;28;20029;-80
2020/12/08 08:00:17;;;;;;;39.85;25.45;;;3.60;92.30;;;;;;5034769;28;20526;-80
2020/12/08 08:02:43;;;;;;;39.30;22.92;;;3.60;92.30;;;;;;5052557;28;20063;-79
2020/12/08 08:05:08;;;;;;;35.70;22.95;;;3.70;92.30;;;;;;5018006;28;20033;-79
2020/12/08 08:07:34;;;;;;;35.95;22.40;;;3.70;92.30;;;;;;5047640;28;20103;-79
2020/12/08 08:09:59;;;;;;;37.20;22.40;;;3.70;92.30;;;;;;5018388;28;20036;-80
2020/12/08 08:12:26;;;;;;;40.72;25.00;;;3.70;92.20;;;;;;5053022;28;20029;-79
2020/12/08 08:14:51;;;;;;;34.72;22.30;;;3.70;92.20;;;;;;5051816;28;20108;-79
2020/12/08 08:17:17;;;;;;;35.03;22.42;;;3.70;92.50;;;;;;5019308;28;20467;-79
2020/12/08 08:19:43;;;;;;;41.45;24.00;;;3.70;92.20;;;;;;4999064;28;20033;-78
2020/12/08 08:22:08;;;;;;;39.42;23.45;;;3.70;92.30;;;;;;5016036;28;20085;-86
2020/12/08 08:24:34;;;;;;;34.80;23.55;;;3.60;92.20;;;;;;5002924;28;20030;-86
2020/12/08 08:26:59;;;;;;;36.70;22.80;;;3.60;92.20;;;;;;5019258;28;20490;-86
2020/12/08 08:29:25;;;;;;;38.00;23.98;;;3.70;92.20;;;;;;5018824;28;20029;-79
2020/12/08 08:31:50;;;;;;;34.63;22.50;;;3.70;92.20;;;;;;5034952;28;20087;-79
2020/12/08 08:34:16;;;;;;;35.28;21.65;;;3.70;92.50;;;;;;5051568;28;20036;-77
2020/12/08 08:36:53;;;;;;;37.85;23.50;;;3.70;92.20;;;;;;5019826;28;20040;-77
2020/12/08 08:39:18;;;;;;;34.55;21.73;;;3.70;92.20;;;;;;5055348;28;20036;-77
2020/12/08 08:41:44;;;;;;;37.30;22.48;;;3.70;92.20;;;;;;5056273;28;20497;-77
2020/12/08 08:44:10;;;;;;;33.33;21.27;;;3.70;92.20;;;;;;5056278;28;20021;-77
2020/12/08 08:46:40;;;;;;;34.35;21.52;;;3.80;92.10;;;;;;5048082;28;20110;-77
2020/12/08 08:49:07;;;;;;;32.03;19.95;;;3.70;92.10;;;;;;5038424;28;20477;-77
2020/12/08 08:51:36;;;;;;;35.05;21.38;;;3.80;92.10;;;;;;5022151;28;20746;-84
2020/12/08 08:54:01;;;;;;;34.70;22.13;;;3.80;92.10;;;;;;5055375;28;20025;-84
2020/12/08 08:56:27;;;;;;;33.40;21.40;;;3.80;92.10;;;;;;5038325;28;20032;-83
2020/12/08 08:58:53;;;;;;;30.65;19.52;;;3.80;92.10;;;;;;5055193;28;20021;-84
2020/12/08 09:01:18;;;;;;;31.88;19.20;;;3.70;92.10;;;;;;5029283;28;20035;-82
2020/12/08 09:03:46;;;;;;;28.25;18.02;;;3.80;92.10;;;;;;5030560;28;20522;-83
2020/12/08 09:06:12;;;;;;;28.05;17.63;;;3.80;92.10;;;;;;5019397;28;20036;-84
2020/12/08 09:08:38;;;;;;;28.92;19.17;;;3.80;92.10;;;;;;5044668;28;20017;-82
2020/12/08 09:11:04;;;;;;;29.00;18.88;;;3.80;92.00;;;;;;5021527;28;20118;-81
2020/12/08 09:13:30;;;;;;;24.73;17.35;;;3.90;92.00;;;;;;5054735;28;20028;-81
2020/12/08 09:15:56;;;;;;;28.95;17.38;;;3.90;92.00;;;;;;5034369;28;20422;-81
2020/12/08 09:18:21;;;;;;;24.23;16.10;;;4.00;91.90;;;;;;5018188;28;20109;-81
2020/12/08 09:20:47;;;;;;;24.85;16.23;;;3.90;91.80;;;;;;5018244;28;20073;-81
2020/12/08 09:23:13;;;;;;;23.75;16.77;;;4.00;91.80;;;;;;5018114;28;20547;-76
2020/12/08 09:25:38;;;;;;;24.58;16.83;;;4.00;91.70;;;;;;5018718;28;20032;-76
2020/12/08 09:28:04;;;;;;;24.92;17.13;;;4.00;91.60;;;;;;5021261;28;20083;-76
2020/12/08 09:30:29;;;;;;;22.48;16.27;;;4.10;91.60;;;;;;5021152;28;20090;-76
2020/12/08 09:32:55;;;;;;;20.50;15.10;;;4.10;91.50;;;;;;5020813;28;20029;-76
2020/12/08 09:35:21;;;;;;;21.38;15.45;;;4.10;91.50;;;;;;5037165;28;20127;-76
2020/12/08 09:37:46;;;;;;;19.95;14.40;;;4.20;91.50;;;;;;5020521;28;20051;-76
2020/12/08 09:40:12;;;;;;;21.77;15.95;;;4.10;91.50;;;;;;5055353;28;20021;-77
2020/12/08 09:42:44;;;;;;;21.35;15.25;;;4.20;91.50;;;;;;5055194;28;20106;-78
2020/12/08 09:45:11;;;;;;;23.58;16.15;;;4.20;91.40;;;;;;5037537;28;20070;-76
2020/12/08 09:47:37;;;;;;;21.65;15.30;;;4.30;91.40;;;;;;5036746;28;20389;-76
2020/12/08 09:50:04;;;;;;;22.63;15.13;;;4.30;91.40;;;;;;5055074;28;20033;-76
2020/12/08 09:52:30;;;;;;;21.05;14.98;;;4.40;91.30;;;;;;5055334;28;20029;-76
2020/12/08 09:54:56;;;;;;;21.42;15.00;;;4.40;91.60;;;;;;5037584;28;20052;-79
2020/12/08 09:57:24;;;;;;;26.40;16.10;;;4.50;91.30;;;;;;5020601;28;20095;-79
2020/12/08 09:59:50;;;;;;;24.23;16.65;;;4.50;91.20;;;;;;5037179;28;20029;-76
2020/12/08 10:02:15;;;;;;;22.80;15.57;;;4.50;91.00;;;;;;5020534;28;20033;-76
2020/12/08 10:04:41;;;;;;;20.73;15.20;;;4.50;91.00;;;;;;5020772;28;20029;-81
2020/12/08 10:07:07;;;;;;;23.65;16.73;;;4.60;90.90;;;;;;5037235;28;20033;-81
2020/12/08 10:09:32;;;;;;;23.20;15.05;;;4.60;90.90;;;;;;5054836;28;20021;-81
2020/12/08 10:11:58;;;;;;;22.75;15.98;;;4.60;91.10;;;;;;5037405;28;20136;-85
2020/12/08 10:14:24;;;;;;;24.77;16.73;;;4.60;90.80;;;;;;5021369;28;20545;-85
2020/12/08 10:16:50;;;;;;;20.85;15.02;;;4.70;90.80;;;;;;5037922;28;20031;-86
2020/12/08 10:19:16;;;;;;;22.00;16.15;;;4.70;90.80;;;;;;5037755;28;20075;-85
2020/12/08 10:21:41;;;;;;;22.10;15.70;;;4.70;90.70;;;;;;5037650;28;20021;-86
2020/12/08 10:24:07;;;;;;;21.05;15.55;;;4.80;90.70;;;;;;5037761;28;20037;-86
2020/12/08 10:26:33;;;;;;;22.88;16.67;;;4.80;90.70;;;;;;5037361;28;20037;-86
2020/12/08 10:28:58;;;;;;;22.17;16.33;;;4.70;90.70;;;;;;5020857;28;20033;-85
2020/12/08 10:31:24;;;;;;;23.40;15.82;;;4.80;90.60;;;;;;5055077;28;20107;-85
2020/12/08 10:33:49;;;;;;;24.33;16.50;;;4.80;90.60;;;;;;5037347;28;20029;-84
2020/12/08 10:36:15;;;;;;;25.65;17.05;;;4.80;90.60;;;;;;5020819;28;20040;-86
2020/12/08 10:38:41;;;;;;;22.80;15.95;;;4.80;90.60;;;;;;5020478;28;20496;-85
2020/12/08 10:41:07;;;;;;;23.20;16.27;;;4.80;90.50;;;;;;5033949;28;20144;-85
2020/12/08 10:43:32;;;;;;;25.92;17.92;;;4.80;90.50;;;;;;5037366;28;20127;-86
2020/12/08 10:45:58;;;;;;;22.92;16.45;;;4.80;90.40;;;;;;5037348;28;20529;-84
2020/12/08 10:48:24;;;;;;;22.50;16.27;;;4.80;90.30;;;;;;5020763;28;20040;-85
2020/12/08 10:50:50;;;;;;;22.80;16.95;;;4.80;90.30;;;;;;5054555;28;20029;-85
2020/12/08 10:53:16;;;;;;;21.17;15.43;;;4.80;90.30;;;;;;5020511;28;20036;-85
2020/12/08 10:55:41;;;;;;;23.02;16.25;;;4.80;90.40;;;;;;5036946;28;20494;-85
2020/12/08 10:58:07;;;;;;;23.05;15.68;;;4.80;90.30;;;;;;5019800;28;20055;-85
2020/12/08 11:00:33;;;;;;;27.83;16.27;;;4.90;90.40;;;;;;5019587;28;20029;-86
2020/12/08 11:02:59;;;;;;;23.77;17.27;;;4.90;90.30;;;;;;5036129;28;20021;-85
2020/12/08 11:05:26;;;;;;;23.92;17.33;;;4.90;90.30;;;;;;5036578;28;20053;-86
2020/12/08 11:07:51;;;;;;;22.73;16.35;;;5.00;90.30;;;;;;5036589;28;20033;-84
2020/12/08 11:10:17;;;;;;;21.40;15.85;;;5.00;90.20;;;;;;5036660;28;20111;-86
2020/12/08 11:12:43;;;;;;;20.08;14.90;;;5.00;90.20;;;;;;5020242;28;20033;-85
2020/12/08 11:15:08;;;;;;;23.33;16.73;;;5.00;90.20;;;;;;5036423;28;20029;-85
2020/12/08 11:17:37;;;;;;;21.83;16.13;;;5.10;90.10;;;;;;5036170;28;20021;-85
2020/12/08 11:20:05;;;;;;;21.73;16.13;;;5.10;90.10;;;;;;5037190;28;20029;-85
2020/12/08 11:22:32;;;;;;;21.55;15.20;;;5.20;90.00;;;;;;5036641;28;20035;-85
2020/12/08 11:24:58;;;;;;;19.95;14.95;;;5.20;90.00;;;;;;5020241;28;20036;-85
2020/12/08 11:27:24;;;;;;;22.30;16.17;;;5.20;90.00;;;;;;5036484;28;20033;-85
2020/12/08 11:29:50;;;;;;;24.42;17.08;;;5.20;90.00;;;;;;5036256;28;20389;-85
2020/12/08 11:32:16;;;;;;;20.60;15.48;;;5.30;89.90;;;;;;5036190;28;20067;-85
2020/12/08 11:34:43;;;;;;;22.67;16.10;;;5.30;89.90;;;;;;5019725;28;20524;-85
2020/12/08 11:37:09;;;;;;;27.77;15.88;;;5.40;90.10;;;;;;5053816;28;20035;-85
2020/12/08 11:39:34;;;;;;;23.08;16.05;;;5.30;89.50;;;;;;5019424;28;20029;-85
2020/12/08 11:42:02;;;;;;;21.50;15.73;;;5.40;89.60;;;;;;5035561;28;20490;-85
2020/12/08 11:44:28;;;;;;;24.85;17.13;;;5.40;89.40;;;;;;5019477;28;20029;-83
2020/12/08 11:46:53;;;;;;;24.42;16.25;;;5.30;89.40;;;;;;5035816;28;20082;-85
2020/12/08 11:49:19;;;;;;;24.67;16.85;;;5.30;89.40;;;;;;5019087;28;20029;-84
2020/12/08 11:51:46;;;;;;;24.73;16.83;;;5.40;89.40;;;;;;5035213;28;20539;-84
2020/12/08 11:54:12;;;;;;;20.77;15.88;;;5.60;88.80;;;;;;5033300;28;20037;-85
2020/12/08 11:56:38;;;;;;;21.80;16.15;;;5.90;87.40;;;;;;5007386;28;20033;-84
2020/12/08 11:59:04;;;;;;;20.38;14.80;;;5.90;87.00;;;;;;5053061;28;20100;-83
2020/12/08 12:01:30;;;;;;;23.05;16.65;;;5.90;87.00;;;;;;5041399;28;20528;-83
2020/12/08 12:03:56;;;;;;;22.55;15.70;;;5.90;86.10;;;;;;5034960;28;20021;-82
2020/12/08 12:06:22;;;;;;;23.80;16.23;;;5.90;86.40;;;;;;5052785;28;20070;-82
2020/12/08 12:08:47;;;;;;;21.70;15.93;;;5.80;86.40;;;;;;5018714;28;20039;-82
2020/12/08 12:11:14;;;;;;;24.27;15.40;;;5.70;86.80;;;;;;5019088;28;20135;-82
2020/12/08 12:13:39;;;;;;;24.00;15.75;;;5.60;87.20;;;;;;5056999;28;20036;-82
2020/12/08 12:16:05;;;;;;;21.27;15.15;;;5.50;87.40;;;;;;5019219;28;20390;-82
2020/12/08 12:18:30;;;;;;;20.88;15.45;;;5.50;87.70;;;;;;5019104;28;20493;-82
2020/12/08 12:20:56;;;;;;;21.75;14.57;;;5.40;87.70;;;;;;5027019;28;20025;-82
2020/12/08 12:23:22;;;;;;;22.42;15.60;;;5.40;87.90;;;;;;5056470;28;20039;-82
2020/12/08 12:25:48;;;;;;;23.15;16.70;;;5.40;88.00;;;;;;5028226;28;20075;-82
2020/12/08 12:28:13;;;;;;;22.25;16.10;;;5.40;88.20;;;;;;5039226;28;20032;-82
2020/12/08 12:30:39;;;;;;;20.30;14.65;;;5.40;88.20;;;;;;5057135;28;20033;-82
2020/12/08 12:33:05;;;;;;;22.58;15.48;;;5.40;88.30;;;;;;5015919;28;20810;-80
2020/12/08 12:35:30;;;;;;;26.10;17.08;;;5.50;88.30;;;;;;5018954;28;20033;-81
2020/12/08 12:37:56;;;;;;;22.83;16.08;;;5.40;88.10;;;;;;5036712;28;20032;-81